Time;durP1;ratioP1;P1;durP2;ratioP2;P2;SDS_P1;SDS_P2;PMS_P1;PMS_P2;Temp;Humidity;BMP_temperature;BMP_pressure;BME280_temperature;BME280_humidity;BME280_pressure;Samples;Min_cycle;Max_cycle;Signal;HPM_P1;HPM_P2
2021/05/11 00:02:23;;;;;;;6.80;4.30;;;;;;;16.50;45.67;99938.81;3609121;39;20027;-66
2021/05/11 00:04:50;;;;;;;6.50;4.32;;;;;;;16.51;45.63;99931.72;3608665;39;20054;-65
2021/05/11 00:07:17;;;;;;;8.60;4.65;;;;;;;16.50;46.01;99936.16;3608697;39;20032;-66
2021/05/11 00:09:44;;;;;;;6.32;4.43;;;;;;;16.47;46.10;99931.09;3608634;39;20415;-66
2021/05/11 00:12:11;;;;;;;11.43;5.13;;;;;;;16.45;45.87;99927.72;3609059;39;20035;-64
2021/05/11 00:14:37;;;;;;;10.07;5.38;;;;;;;16.41;46.34;99924.41;3608965;39;20031;-64
2021/05/11 00:17:04;;;;;;;7.55;4.70;;;;;;;16.38;46.62;99936.97;3609020;39;20039;-65
2021/05/11 00:19:34;;;;;;;7.35;4.90;;;;;;;16.33;46.39;99936.44;3608948;39;20024;-64
2021/05/11 00:22:02;;;;;;;10.52;5.15;;;;;;;16.30;46.33;99934.88;3608593;39;20307;-68
2021/05/11 00:24:29;;;;;;;7.10;5.03;;;;;;;16.29;46.41;99942.91;3608962;39;20069;-65
2021/05/11 00:27:00;;;;;;;10.75;4.47;;;;;;;16.27;46.48;99926.28;3609105;39;20047;-66
2021/05/11 00:29:27;;;;;;;7.07;4.47;;;;;;;16.26;46.43;99929.88;3608747;39;20117;-63
2021/05/11 00:31:54;;;;;;;7.95;4.60;;;;;;;16.23;46.34;99940.66;3608886;39;20028;-63
2021/05/11 00:34:21;;;;;;;5.70;4.40;;;;;;;16.21;46.38;99935.47;3608520;39;20400;-64
2021/05/11 00:36:47;;;;;;;6.97;4.50;;;;;;;16.21;46.32;99930.16;3608806;39;20032;-62
2021/05/11 00:39:15;;;;;;;5.75;4.15;;;;;;;16.20;46.46;99932.91;3599185;39;20031;-63
2021/05/11 00:41:45;;;;;;;7.22;4.80;;;;;;;16.17;46.60;99924.25;3598955;39;20056;-64
2021/05/11 00:44:26;;;;;;;9.40;4.18;;;;;;;16.12;46.32;99923.72;3608742;39;20028;-64
2021/05/11 00:46:57;;;;;;;5.00;3.70;;;;;;;16.16;46.23;99919.91;3609301;39;20108;-64
2021/05/11 00:49:26;;;;;;;8.50;4.80;;;;;;;16.14;46.74;99923.59;3610462;39;20064;-67
2021/05/11 00:51:53;;;;;;;6.90;4.68;;;;;;;16.12;46.78;99921.06;3609979;39;20029;-64
2021/05/11 00:54:22;;;;;;;6.70;4.50;;;;;;;16.10;46.72;99922.13;3609909;39;20396;-63
2021/05/11 00:56:49;;;;;;;9.27;5.47;;;;;;;16.08;46.69;99930.16;3609851;39;20031;-63
2021/05/11 00:59:19;;;;;;;8.65;4.85;;;;;;;16.06;46.98;99928.56;3610307;39;20035;-63
2021/05/11 01:01:46;;;;;;;8.77;5.25;;;;;;;16.04;46.96;99928.66;3610254;39;20028;-63
2021/05/11 01:04:15;;;;;;;7.25;5.07;;;;;;;16.03;46.87;99928.75;3598715;40;20059;-64
2021/05/11 01:06:42;;;;;;;8.18;4.20;;;;;;;16.02;46.93;99927.91;3600097;39;20058;-63
2021/05/11 01:09:09;;;;;;;5.78;4.20;;;;;;;16.00;46.92;99929.78;3598928;40;20038;-64
2021/05/11 01:11:38;;;;;;;6.45;4.63;;;;;;;15.97;47.03;99921.22;3598920;40;20031;-63
2021/05/11 01:14:06;;;;;;;7.80;4.75;;;;;;;15.96;47.15;99920.38;3600106;39;20029;-64
2021/05/11 01:16:33;;;;;;;6.95;4.75;;;;;;;15.95;47.22;99912.53;3600109;39;20033;-64
2021/05/11 01:19:03;;;;;;;8.15;4.95;;;;;;;15.93;47.20;99912.66;3599659;39;20396;-65
2021/05/11 01:21:39;;;;;;;7.07;4.20;;;;;;;15.93;47.11;99917.94;3600119;39;20054;-64
2021/05/11 01:24:09;;;;;;;10.40;4.45;;;;;;;15.93;46.97;99914.44;3599596;39;20263;-65
2021/05/11 01:26:44;;;;;;;6.15;3.67;;;;;;;15.92;47.06;99907.47;3600062;39;20039;-63
2021/05/11 01:29:31;;;;;;;5.95;4.53;;;;;;;15.89;47.14;99915.59;3599974;39;20028;-64
2021/05/11 01:46:05;;;;;;;8.85;4.53;;;;;;;15.78;47.34;99911.84;3599501;40;20369;-66
2021/05/11 01:48:39;;;;;;;6.18;4.47;;;;;;;15.77;47.70;99912.78;3599741;39;20055;-65
2021/05/11 01:51:21;;;;;;;6.82;4.07;;;;;;;15.76;47.70;99912.91;3599900;39;20040;-64
2021/05/11 02:24:08;;;;;;;6.57;4.55;;;;;;;15.51;48.07;99890.69;3609358;39;20328;-65
2021/05/11 02:26:35;;;;;;;7.53;4.65;;;;;;;15.50;48.13;99886.34;3609737;39;20031;-63
2021/05/11 02:29:04;;;;;;;8.38;4.90;;;;;;;15.48;48.13;99882.97;3609691;39;20024;-66
2021/05/11 02:31:31;;;;;;;6.07;5.10;;;;;;;15.49;48.41;99883.81;3600033;39;20064;-64
2021/05/11 02:33:58;;;;;;;8.60;5.07;;;;;;;15.48;48.35;99887.38;3609660;39;20080;-64
2021/05/11 02:36:25;;;;;;;9.95;5.43;;;;;;;15.48;48.56;99890.88;3600023;39;20051;-66
2021/05/11 02:38:52;;;;;;;8.07;5.15;;;;;;;15.44;48.57;99885.91;3609171;39;20299;-63
2021/05/11 02:41:19;;;;;;;11.15;5.22;;;;;;;15.44;48.70;99891.19;3609592;39;20039;-66
2021/05/11 02:43:46;;;;;;;8.30;5.05;;;;;;;15.43;48.37;99887.69;3609615;39;20035;-67
2021/05/11 02:46:13;;;;;;;8.02;5.35;;;;;;;15.43;48.64;99889.50;3599854;39;20028;-64
2021/05/11 02:48:41;;;;;;;9.05;5.10;;;;;;;15.42;48.78;99888.63;3609643;39;20043;-65
2021/05/11 02:51:08;;;;;;;6.50;4.53;;;;;;;15.44;48.72;99891.19;3609189;39;20062;-64
2021/05/11 02:53:34;;;;;;;7.53;4.88;;;;;;;15.43;48.71;99894.78;3609141;39;20104;-65
2021/05/11 02:56:01;;;;;;;6.68;4.93;;;;;;;15.42;48.46;99887.78;3609493;39;20040;-66
2021/05/11 02:58:30;;;;;;;8.85;5.10;;;;;;;15.43;48.81;99890.34;3609552;39;20038;-64
2021/05/11 03:00:56;;;;;;;6.82;4.25;;;;;;;15.43;48.63;99900.06;3609578;39;20024;-64
2021/05/11 03:03:24;;;;;;;6.95;5.30;;;;;;;15.41;48.73;99900.16;3609513;39;20036;-66
2021/05/11 03:05:51;;;;;;;7.57;4.38;;;;;;;15.42;48.73;99893.91;3588797;40;20044;-63
2021/05/11 03:08:18;;;;;;;6.72;4.70;;;;;;;15.43;48.59;99889.50;3589292;40;20039;-63
2021/05/11 03:10:45;;;;;;;7.93;4.57;;;;;;;15.43;48.72;99890.34;3588358;40;20409;-63
2021/05/11 03:13:12;;;;;;;7.90;4.88;;;;;;;15.43;48.46;99895.63;3589331;40;20032;-64
2021/05/11 03:15:39;;;;;;;10.18;5.47;;;;;;;15.45;48.64;99893.72;3589254;40;20041;-63
2021/05/11 03:18:05;;;;;;;7.72;5.38;;;;;;;15.46;48.52;99890.13;3588776;40;20278;-66
2021/05/11 03:20:33;;;;;;;5.88;4.53;;;;;;;15.50;48.50;99893.41;3588792;40;20409;-64
2021/05/11 03:23:01;;;;;;;5.85;4.72;;;;;;;15.53;48.51;99895.84;3589090;40;20273;-64
2021/05/11 03:25:29;;;;;;;10.18;5.75;;;;;;;15.53;48.67;99894.06;3589098;40;20068;-65
2021/05/11 03:27:57;;;;;;;8.95;6.10;;;;;;;15.57;48.67;99892.91;3589096;40;20037;-66
2021/05/11 03:30:23;;;;;;;11.35;5.63;;;;;;;15.63;48.47;99896.16;3589087;40;20036;-67
2021/05/11 03:32:50;;;;;;;11.05;6.32;;;;;;;15.67;48.30;99887.94;3589022;40;20092;-64
2021/05/11 03:35:17;;;;;;;15.75;6.07;;;;;;;15.71;48.45;99883.28;3587644;40;20116;-64
2021/05/11 03:37:45;;;;;;;10.50;5.15;;;;;;;15.77;48.57;99888.16;3588668;40;20308;-67
2021/05/11 03:40:12;;;;;;;11.98;5.68;;;;;;;15.81;48.32;99892.28;3589168;40;20060;-64
2021/05/11 03:42:42;;;;;;;9.75;5.18;;;;;;;15.84;48.26;99890.31;3588611;40;20436;-64
2021/05/11 03:45:12;;;;;;;11.25;5.25;;;;;;;15.88;48.48;99890.13;3588916;40;20032;-66
2021/05/11 03:47:44;;;;;;;8.20;5.53;;;;;;;15.93;48.34;99888.00;3587508;40;20434;-65
2021/05/11 03:50:13;;;;;;;6.95;5.47;;;;;;;15.99;47.92;99887.59;3589062;40;20064;-65
2021/05/11 03:52:41;;;;;;;9.63;6.50;;;;;;;16.04;47.93;99878.44;3588614;40;20427;-68
2021/05/11 03:55:09;;;;;;;9.27;4.75;;;;;;;16.09;47.83;99878.97;3588518;40;20059;-70
2021/05/11 03:57:36;;;;;;;10.10;5.13;;;;;;;16.14;47.48;99884.78;3587743;40;20052;-67
2021/05/11 04:00:04;;;;;;;13.60;9.20;;;;;;;16.16;47.36;99874.94;3588871;40;20025;-66
2021/05/11 04:02:30;;;;;;;12.02;5.32;;;;;;;16.23;47.15;99882.47;3588962;40;20113;-64
2021/05/11 04:04:57;;;;;;;9.48;6.50;;;;;;;16.27;46.90;99873.41;3593783;40;20085;-64
2021/05/11 04:07:24;;;;;;;8.20;4.72;;;;;;;16.34;47.07;99878.16;3598550;39;20530;-68
2021/05/11 04:09:53;;;;;;;8.73;5.03;;;;;;;16.41;47.09;99874.13;3598953;39;20036;-67
2021/05/11 04:12:36;;;;;;;8.10;5.88;;;;;;;16.50;46.48;99880.59;3597687;40;20039;-66
2021/05/11 04:17:48;;;;;;;7.28;5.00;;;;;;;16.64;46.31;99874.34;3598419;40;20106;-66
2021/05/11 04:20:15;;;;;;;9.80;4.60;;;;;;;16.65;46.53;99876.88;3598851;39;20029;-66
2021/05/11 04:22:42;;;;;;;6.90;4.28;;;;;;;16.71;46.37;99880.97;3600255;39;20032;-67
2021/05/11 04:25:09;;;;;;;6.93;4.82;;;;;;;16.77;46.28;99883.16;3600279;39;20035;-65
2021/05/11 04:27:37;;;;;;;6.30;5.07;;;;;;;16.84;46.18;99883.56;3600025;39;20032;-65
2021/05/11 04:30:04;;;;;;;9.43;5.00;;;;;;;16.97;46.16;99887.06;3599755;39;20415;-64
2021/05/11 04:32:31;;;;;;;9.80;5.50;;;;;;;17.10;46.08;99887.06;3600180;39;20028;-68
2021/05/11 04:34:58;;;;;;;9.85;4.70;;;;;;;17.27;45.52;99876.94;3598766;40;20032;-65
2021/05/11 04:37:25;;;;;;;7.53;4.85;;;;;;;17.43;45.53;99883.78;3593562;39;20040;-64
2021/05/11 04:39:53;;;;;;;10.20;5.47;;;;;;;17.97;44.14;99879.75;3595474;39;20024;-67
2021/05/11 04:42:19;;;;;;;7.65;5.28;;;;;;;19.15;41.93;99890.09;3599783;39;20035;-63
2021/05/11 04:44:48;;;;;;;10.80;5.40;;;;;;;19.89;40.86;99884.19;3598804;40;20073;-64
2021/05/11 04:47:17;;;;;;;8.57;5.72;;;;;;;20.84;39.64;99882.34;3595160;39;20219;-62
2021/05/11 04:49:44;;;;;;;10.02;5.65;;;;;;;22.23;36.87;99875.19;3586032;40;20393;-63
2021/05/11 04:52:11;;;;;;;7.05;5.00;;;;;;;22.60;36.17;99876.13;3590015;40;20038;-63
2021/05/11 04:54:38;;;;;;;9.80;4.90;;;;;;;22.02;37.42;99875.31;3590001;40;20154;-69
2021/05/11 04:57:06;;;;;;;11.63;5.80;;;;;;;21.95;37.11;99875.06;3590034;40;20024;-64
2021/05/11 04:59:33;;;;;;;7.90;6.13;;;;;;;23.86;34.02;99871.00;3590074;40;20028;-62
2021/05/11 05:02:03;;;;;;;13.82;10.30;;;;;;;25.57;31.31;99864.03;3589586;40;20480;-62
2021/05/11 05:04:32;;;;;;;10.07;6.20;;;;;;;25.61;31.30;99865.38;3593319;39;20056;-60
2021/05/11 05:07:00;;;;;;;7.50;5.72;;;;;;;25.18;31.50;99858.38;3604194;39;20030;-61
2021/05/11 05:09:26;;;;;;;7.30;5.57;;;;;;;25.33;31.66;99861.28;3606582;39;20035;-63
2021/05/11 05:11:53;;;;;;;8.10;6.22;;;;;;;26.55;29.81;99864.13;3607461;39;20035;-63
2021/05/11 05:14:20;;;;;;;9.30;5.82;;;;;;;28.08;27.80;99853.66;3604608;39;20032;-70
2021/05/11 05:16:47;;;;;;;11.20;5.68;;;;;;;28.04;27.52;99844.25;3606669;39;20031;-66
2021/05/11 05:19:14;;;;;;;8.88;5.85;;;;;;;29.10;26.48;99843.22;3605793;39;20031;-63
2021/05/11 05:21:41;;;;;;;8.63;5.35;;;;;;;29.42;25.63;99842.78;3607901;39;20400;-65
2021/05/11 05:24:12;;;;;;;12.60;7.13;;;;;;;28.79;26.53;99840.69;3608086;39;20035;-64
2021/05/11 05:26:39;;;;;;;8.48;5.60;;;;;;;29.09;25.81;99842.38;3606787;39;20402;-66
2021/05/11 05:29:06;;;;;;;10.13;5.90;;;;;;;28.52;26.35;99839.44;3608235;39;20028;-70
2021/05/11 05:31:32;;;;;;;6.80;5.15;;;;;;;28.37;26.95;99844.00;3598500;39;20048;-64
2021/05/11 05:33:59;;;;;;;13.07;5.60;;;;;;;28.09;27.10;99839.16;3598211;39;20035;-65
2021/05/11 05:36:27;;;;;;;10.70;5.95;;;;;;;28.29;26.84;99838.69;3607809;39;20047;-64
2021/05/11 05:38:54;;;;;;;13.45;5.75;;;;;;;28.49;26.65;99846.06;3597860;39;20112;-66
2021/05/11 05:41:22;;;;;;;9.13;5.90;;;;;;;29.56;25.00;99842.94;3604428;39;20084;-65
2021/05/11 05:43:50;;;;;;;7.93;5.22;;;;;;;31.27;22.89;99829.94;3608155;39;20108;-65
2021/05/11 05:46:18;;;;;;;9.32;5.43;;;;;;;31.59;22.53;99836.50;3606844;39;20036;-64
2021/05/11 05:48:46;;;;;;;11.52;5.80;;;;;;;31.46;23.09;99834.59;3606069;39;20320;-65
2021/05/11 05:51:14;;;;;;;11.82;5.93;;;;;;;30.70;23.86;99844.63;3605722;39;20035;-66
2021/05/11 05:53:43;;;;;;;7.57;5.15;;;;;;;29.93;24.33;99836.47;3605710;39;20040;-64
2021/05/11 05:56:12;;;;;;;7.57;5.30;;;;;;;29.92;24.67;99838.34;3608053;39;20049;-65
2021/05/11 05:58:39;;;;;;;9.70;5.85;;;;;;;31.46;22.47;99836.47;3607948;39;20075;-64
2021/05/11 06:01:07;;;;;;;7.95;5.32;;;;;;;32.54;21.09;99824.50;3596650;39;20530;-67
2021/05/11 06:03:37;;;;;;;13.48;5.60;;;;;;;32.98;21.09;99822.94;3606192;39;20062;-65
2021/05/11 06:06:05;;;;;;;9.23;5.28;;;;;;;35.59;18.47;99820.28;3603994;39;20542;-66
2021/05/11 06:08:33;;;;;;;8.65;5.57;;;;;;;37.97;16.38;99821.22;3605919;39;20040;-62
2021/05/11 06:11:07;;;;;;;10.90;5.47;;;;;;;39.72;14.86;99815.91;3598923;39;20032;-62
2021/05/11 06:13:39;;;;;;;11.15;5.40;;;;;;;41.31;13.75;99811.22;3602142;39;20056;-62
2021/05/11 06:18:53;;;;;;;8.23;5.38;;;;;;;41.73;12.75;99816.53;3605377;39;20037;-61
2021/05/11 06:21:21;;;;;;;7.57;5.50;;;;;;;42.32;12.73;99813.22;3605854;39;20027;-61
2021/05/11 06:23:48;;;;;;;9.30;5.45;;;;;;;41.82;13.08;99811.28;3606182;39;20078;-61
2021/05/11 06:26:16;;;;;;;10.00;5.07;;;;;;;42.08;12.18;99804.72;3607619;39;20328;-60
2021/05/11 06:28:45;;;;;;;7.45;4.53;;;;;;;42.29;12.28;99802.78;3607616;39;20040;-61
2021/05/11 06:31:13;;;;;;;6.97;5.32;;;;;;;42.69;12.30;99801.03;3597321;39;20036;-61
2021/05/11 06:33:40;;;;;;;6.43;4.43;;;;;;;43.85;11.22;99801.53;3597153;39;20039;-61
2021/05/11 06:36:09;;;;;;;7.05;5.13;;;;;;;44.95;10.21;99804.28;3606109;39;20526;-62
2021/05/11 06:38:38;;;;;;;5.18;4.43;;;;;;;45.42;9.83;99799.78;3607098;39;20027;-62
2021/05/11 06:41:04;;;;;;;13.40;4.60;;;;;;;45.65;9.75;99802.78;3607402;39;20036;-61
2021/05/11 06:43:34;;;;;;;9.55;5.13;;;;;;;46.26;9.36;99798.97;3606048;39;20311;-62
2021/05/11 06:46:29;;;;;;;9.65;5.38;;;;;;;46.93;8.99;99810.44;3594692;39;20056;-60
2021/05/11 06:49:11;;;;;;;9.45;5.57;;;;;;;46.27;9.53;99798.66;3605897;39;20036;-60
2021/05/11 06:54:24;;;;;;;9.05;5.43;;;;;;;45.70;9.66;99799.94;3605512;39;20033;-61
2021/05/11 06:56:51;;;;;;;8.57;4.57;;;;;;;46.09;8.97;99805.91;3604793;39;20036;-62
2021/05/11 06:59:19;;;;;;;7.55;5.03;;;;;;;46.22;8.94;99797.91;3606007;39;20046;-61
2021/05/11 07:01:46;;;;;;;7.82;4.40;;;;;;;46.47;8.93;99798.31;3606932;39;20040;-61
2021/05/11 07:04:13;;;;;;;7.00;4.32;;;;;;;46.66;8.85;99800.97;3606271;39;20091;-60
2021/05/11 07:06:42;;;;;;;10.27;4.60;;;;;;;47.18;8.94;99796.00;3596184;39;20028;-61
2021/05/11 07:09:13;;;;;;;6.80;4.10;;;;;;;47.34;7.92;99791.75;3596113;39;20027;-61
2021/05/11 07:14:27;;;;;;;6.78;3.97;;;;;;;47.25;8.17;99781.69;3603274;39;20033;-61
2021/05/11 07:16:55;;;;;;;7.43;4.30;;;;;;;47.14;8.57;99792.22;3597156;39;20043;-62
2021/05/11 07:19:25;;;;;;;6.30;4.05;;;;;;;46.70;8.23;99795.63;3603189;39;20063;-61
2021/05/11 07:21:52;;;;;;;9.73;4.78;;;;;;;46.64;9.14;99788.53;3604401;39;20043;-61
2021/05/11 07:24:23;;;;;;;7.70;4.32;;;;;;;43.96;10.45;99792.06;3596609;39;20043;-60
2021/05/11 07:27:01;;;;;;;9.50;4.38;;;;;;;42.72;11.08;99783.94;3606528;39;20336;-64
2021/05/11 07:29:43;;;;;;;5.22;4.05;;;;;;;43.20;10.64;99774.06;3604953;39;20040;-62
2021/05/11 07:32:11;;;;;;;9.73;4.63;;;;;;;44.68;10.09;99773.63;3601768;39;20036;-61
2021/05/11 07:34:51;;;;;;;6.45;4.05;;;;;;;43.15;10.65;99774.94;3603824;39;20117;-62
2021/05/11 07:37:19;;;;;;;8.07;4.03;;;;;;;41.84;12.20;99776.88;3601902;39;20040;-60
2021/05/11 07:39:47;;;;;;;10.68;6.07;;;;;;;42.45;11.34;99779.56;3590567;39;20067;-60
2021/05/11 07:42:14;;;;;;;6.97;4.72;;;;;;;41.39;11.75;99774.91;3601640;39;20381;-61
2021/05/11 07:44:50;;;;;;;7.32;4.70;;;;;;;41.21;12.45;99781.72;3592573;39;20032;-62
2021/05/11 07:47:22;;;;;;;7.05;4.60;;;;;;;40.03;13.27;99771.22;3603039;39;20036;-58
2021/05/11 07:50:12;;;;;;;9.40;4.22;;;;;;;41.63;12.55;99765.03;3602082;39;20029;-60
2021/05/11 08:04:03;;;;;;;10.95;4.50;;;;;;;40.70;13.04;99762.28;3592070;39;20044;-64
2021/05/11 08:09:56;;;;;;;7.00;4.60;;;;;;;42.09;11.97;99758.75;3577324;40;20044;-60
2021/05/11 08:15:19;;;;;;;6.38;3.92;;;;;;;43.24;10.89;99755.81;3576428;40;20049;-60
2021/05/11 08:17:52;;;;;;;6.00;4.22;;;;;;;42.32;11.60;99763.66;3576318;40;20040;-60
2021/05/11 08:20:36;;;;;;;7.65;3.88;;;;;;;41.23;12.35;99763.03;3577340;40;20033;-61
2021/05/11 08:23:21;;;;;;;5.55;3.90;;;;;;;40.18;13.63;99752.06;3574035;40;20048;-61
2021/05/11 08:28:42;;;;;;;6.25;4.00;;;;;;;39.42;13.60;99759.66;3576436;40;20030;-58
2021/05/11 08:31:14;;;;;;;10.45;4.65;;;;;;;38.86;14.54;99750.81;3580322;40;20033;-64
2021/05/11 08:33:44;;;;;;;11.18;4.10;;;;;;;38.43;15.34;99757.06;3575066;40;20036;-61
2021/05/11 08:36:19;;;;;;;9.10;3.97;;;;;;;38.24;15.56;99758.44;3573366;40;20141;-60
2021/05/11 08:38:46;;;;;;;8.13;3.60;;;;;;;37.90;15.58;99757.59;3573880;40;21473;-58
2021/05/11 08:41:16;;;;;;;8.05;3.85;;;;;;;37.18;16.03;99763.69;3577922;40;20286;-60
2021/05/11 08:43:45;;;;;;;6.25;3.72;;;;;;;36.51;16.97;99761.47;3576913;40;20029;-61
2021/05/11 08:46:14;;;;;;;8.52;3.75;;;;;;;36.08;17.20;99755.53;3577056;40;20048;-61
2021/05/11 08:48:43;;;;;;;8.48;3.80;;;;;;;35.39;17.71;99753.25;3580314;40;20087;-60
2021/05/11 08:51:14;;;;;;;7.70;4.15;;;;;;;34.83;18.31;99759.84;3577777;40;20064;-63
2021/05/11 15:56:10;;;;;;;6.60;3.03;;;;;;;28.64;25.47;99438.03;3672628;23;20494;-52
2021/05/11 15:58:38;;;;;;;2.90;2.58;;;;;;;28.57;25.46;99440.66;3524413;40;20134;-52
2021/05/11 16:01:06;;;;;;;16.98;3.40;;;;;;;28.54;25.67;99449.16;3526675;40;20403;-52
2021/05/11 16:03:33;;;;;;;4.07;3.28;;;;;;;28.51;25.04;99444.94;3525385;40;20036;-50
2021/05/11 16:05:59;;;;;;;6.50;3.47;;;;;;;28.49;24.92;99444.31;3527641;40;20079;-51
2021/05/11 16:08:28;;;;;;;6.15;4.13;;;;;;;28.46;25.42;99444.72;3517105;40;20411;-49
2021/05/11 16:10:56;;;;;;;4.28;2.72;;;;;;;28.45;25.21;99440.34;3517989;40;20493;-50
2021/05/11 16:13:25;;;;;;;4.75;3.10;;;;;;;28.38;25.46;99442.16;3527773;40;20054;-49
2021/05/11 16:15:52;;;;;;;5.07;3.53;;;;;;;28.32;25.86;99432.16;3528362;40;20040;-53
2021/05/11 16:18:19;;;;;;;4.65;3.00;;;;;;;28.29;25.94;99439.75;3526115;40;20393;-50
2021/05/11 16:20:46;;;;;;;7.15;3.05;;;;;;;28.23;25.91;99427.88;3526950;40;20440;-51
2021/05/11 16:23:13;;;;;;;2.95;2.20;;;;;;;28.18;25.62;99423.06;3526290;40;20307;-50
2021/05/11 16:25:40;;;;;;;4.47;2.65;;;;;;;28.11;26.14;99427.56;3527428;40;20046;-50
2021/05/11 16:28:08;;;;;;;3.83;2.60;;;;;;;28.08;26.46;99432.47;3529402;40;20037;-54
2021/05/11 16:30:40;;;;;;;4.32;2.85;;;;;;;28.02;26.11;99428.69;3528702;40;20035;-52
2021/05/11 16:33:09;;;;;;;8.55;3.03;;;;;;;27.96;25.77;99424.06;3528233;40;20066;-50
2021/05/11 16:35:36;;;;;;;5.88;2.60;;;;;;;27.92;26.09;99428.19;3528921;40;20137;-50
2021/05/11 16:38:03;;;;;;;5.93;3.47;;;;;;;27.88;26.18;99432.25;3528134;40;20039;-52
2021/05/11 16:40:30;;;;;;;5.72;2.80;;;;;;;27.80;26.23;99433.22;3528003;40;20403;-53
2021/05/11 16:42:57;;;;;;;4.80;2.85;;;;;;;27.76;26.61;99429.22;3528003;40;20383;-58
2021/05/11 16:45:25;;;;;;;8.00;3.00;;;;;;;27.71;26.77;99428.97;3528232;40;20133;-55
2021/05/11 16:47:55;;;;;;;4.75;2.60;;;;;;;27.63;27.08;99432.59;3529825;40;20050;-55
2021/05/11 16:50:24;;;;;;;4.63;2.50;;;;;;;27.56;27.24;99444.28;3528263;40;20575;-52
2021/05/11 16:52:51;;;;;;;5.03;2.50;;;;;;;27.47;27.18;99432.75;3528469;40;20043;-56
2021/05/11 16:55:19;;;;;;;5.85;2.70;;;;;;;27.40;27.41;99429.16;3526474;40;20070;-57
2021/05/11 16:57:46;;;;;;;5.82;3.75;;;;;;;27.34;27.65;99437.97;3529875;40;20051;-55
2021/05/11 17:00:15;;;;;;;6.93;3.58;;;;;;;27.25;27.68;99436.38;3527468;40;20075;-54
2021/05/11 17:02:42;;;;;;;6.28;2.90;;;;;;;27.16;28.13;99440.19;3529165;40;20043;-56
2021/05/11 17:05:11;;;;;;;5.38;3.05;;;;;;;27.04;28.38;99437.97;3527955;40;20372;-53
2021/05/11 17:07:38;;;;;;;6.68;2.88;;;;;;;26.95;28.70;99441.72;3518874;40;20396;-55
2021/05/11 17:10:06;;;;;;;5.78;2.90;;;;;;;26.85;28.84;99451.06;3526656;40;20046;-52
2021/05/11 17:12:33;;;;;;;6.55;3.40;;;;;;;26.77;28.93;99443.91;3529409;40;20039;-54
2021/05/11 17:15:00;;;;;;;5.90;3.33;;;;;;;26.67;28.60;99451.41;3529119;40;20047;-54
2021/05/11 17:17:28;;;;;;;4.38;2.53;;;;;;;26.56;29.06;99441.09;3528576;40;20399;-58
2021/05/11 17:19:55;;;;;;;6.60;3.03;;;;;;;26.47;29.27;99444.88;3528011;40;20051;-53
2021/05/11 17:22:23;;;;;;;4.78;2.72;;;;;;;26.38;29.21;99433.34;3528242;40;20062;-51
2021/05/11 17:24:50;;;;;;;7.65;2.97;;;;;;;26.30;29.49;99442.28;3518198;40;20075;-53
2021/05/11 17:27:18;;;;;;;7.25;2.97;;;;;;;26.21;29.53;99448.69;3518626;40;20040;-52
2021/05/11 17:29:45;;;;;;;6.85;3.97;;;;;;;26.27;29.51;99448.00;3525595;40;20035;-56
2021/05/11 17:32:12;;;;;;;5.05;3.00;;;;;;;26.21;29.45;99456.75;3525623;40;20083;-63
2021/05/11 17:34:39;;;;;;;5.20;2.80;;;;;;;26.07;29.90;99453.00;3527178;40;20404;-56
2021/05/11 17:37:07;;;;;;;8.75;5.43;;;;;;;25.94;30.14;99451.91;3519493;40;20039;-53
2021/05/11 17:39:35;;;;;;;6.57;3.40;;;;;;;25.85;30.35;99461.03;3526946;40;20406;-57
2021/05/11 17:42:06;;;;;;;5.38;3.45;;;;;;;25.71;30.57;99460.75;3516989;40;20032;-49
2021/05/11 17:44:35;;;;;;;5.13;2.65;;;;;;;25.57;30.97;99461.44;3527615;40;20035;-56
2021/05/11 17:47:03;;;;;;;7.05;2.78;;;;;;;25.45;31.20;99455.63;3527922;40;20046;-55
2021/05/11 17:49:30;;;;;;;5.85;2.75;;;;;;;25.32;31.54;99452.66;3528140;40;20050;-61
2021/05/11 17:51:58;;;;;;;7.00;2.88;;;;;;;25.21;31.66;99463.75;3526948;40;20035;-59
2021/05/11 17:54:25;;;;;;;4.57;3.65;;;;;;;25.09;31.77;99457.91;3526750;40;20327;-61
2021/05/11 17:56:53;;;;;;;9.63;3.25;;;;;;;24.99;31.72;99456.38;3528918;40;20047;-59
2021/05/11 17:59:20;;;;;;;8.30;2.85;;;;;;;24.87;31.82;99459.41;3526671;40;20050;-61
2021/05/11 18:01:47;;;;;;;8.35;3.20;;;;;;;24.76;32.10;99461.59;3518752;40;20039;-60
2021/05/11 18:04:14;;;;;;;8.43;3.42;;;;;;;24.66;32.19;99482.38;3526354;40;20135;-60
2021/05/11 18:06:41;;;;;;;5.75;2.88;;;;;;;24.55;32.29;99464.78;3528579;40;20039;-61
2021/05/11 18:09:09;;;;;;;4.25;3.35;;;;;;;24.44;32.40;99474.00;3527447;40;20039;-61
2021/05/11 18:11:36;;;;;;;8.98;3.60;;;;;;;24.33;32.33;99472.47;3526895;40;20036;-55
2021/05/11 18:14:05;;;;;;;5.15;3.45;;;;;;;24.24;32.63;99468.09;3527595;40;20031;-60
2021/05/11 18:16:32;;;;;;;6.85;3.55;;;;;;;24.15;33.00;99466.38;3523548;40;20419;-59
2021/05/11 18:18:59;;;;;;;5.57;3.22;;;;;;;24.07;32.68;99473.56;3518333;40;20408;-60
2021/05/11 18:21:25;;;;;;;5.70;3.40;;;;;;;23.98;32.99;99470.06;3526946;40;20130;-59
2021/05/11 18:23:52;;;;;;;4.10;2.70;;;;;;;23.89;33.28;99474.53;3523782;40;20036;-61
2021/05/11 18:26:19;;;;;;;6.75;3.38;;;;;;;23.77;33.35;99475.84;3527682;40;20048;-58
2021/05/11 18:28:47;;;;;;;4.88;3.17;;;;;;;23.69;33.76;99473.94;3517674;40;20032;-60
2021/05/11 18:31:15;;;;;;;6.60;3.17;;;;;;;23.60;33.41;99482.97;3528166;40;20392;-60
2021/05/11 18:33:44;;;;;;;5.47;3.08;;;;;;;23.52;33.91;99482.03;3526869;40;20047;-61
2021/05/11 18:36:18;;;;;;;4.28;3.08;;;;;;;23.47;33.53;99487.03;3518180;40;20417;-62
2021/05/11 18:38:53;;;;;;;4.20;2.90;;;;;;;23.38;33.49;99484.31;3525836;40;20043;-56
2021/05/11 18:41:20;;;;;;;8.15;3.75;;;;;;;23.32;33.59;99487.66;3527065;40;20121;-55
2021/05/11 18:43:49;;;;;;;5.35;2.80;;;;;;;23.26;33.25;99490.94;3524707;40;20381;-60
2021/05/11 18:46:19;;;;;;;5.32;2.63;;;;;;;23.20;33.51;99493.41;3517787;40;20340;-64
2021/05/11 18:48:47;;;;;;;5.03;2.70;;;;;;;23.17;33.45;99494.56;3526698;40;20070;-60
2021/05/11 18:51:14;;;;;;;5.25;2.80;;;;;;;23.13;33.39;99493.22;3523200;40;20802;-62
2021/05/11 18:53:41;;;;;;;4.63;3.15;;;;;;;23.06;33.46;99500.16;3517903;40;20047;-52
2021/05/11 18:56:08;;;;;;;9.02;3.90;;;;;;;22.99;33.79;99499.94;3523773;40;20502;-54
2021/05/11 18:58:35;;;;;;;5.07;3.20;;;;;;;22.95;33.75;99511.97;3527621;40;20070;-58
2021/05/11 19:01:02;;;;;;;7.95;4.03;;;;;;;22.92;34.31;99500.75;3527413;40;20087;-61
2021/05/11 19:03:32;;;;;;;7.80;3.28;;;;;;;22.86;34.13;99491.50;3524532;40;20047;-58
2021/05/11 19:05:59;;;;;;;6.60;2.90;;;;;;;22.79;34.59;99501.94;3526064;40;20039;-54
2021/05/11 19:08:26;;;;;;;4.93;3.40;;;;;;;22.74;34.35;99498.91;3527170;40;20043;-61
2021/05/11 19:10:53;;;;;;;6.47;3.25;;;;;;;22.70;34.02;99496.69;3527166;40;20118;-62
2021/05/11 19:13:20;;;;;;;7.70;3.25;;;;;;;22.67;33.92;99502.31;3528164;40;20039;-61
2021/05/11 19:15:46;;;;;;;3.88;2.97;;;;;;;22.63;33.54;99501.81;3527294;40;20032;-61
2021/05/11 19:18:13;;;;;;;6.85;3.65;;;;;;;22.59;34.08;99504.94;3526580;40;20055;-55
2021/05/11 19:20:41;;;;;;;5.50;2.67;;;;;;;22.51;34.07;99511.06;3527413;40;20061;-61
2021/05/11 19:23:09;;;;;;;8.80;3.17;;;;;;;22.46;34.16;99508.81;3525748;40;20127;-60
2021/05/11 19:25:37;;;;;;;9.32;2.85;;;;;;;22.42;33.87;99503.94;3526842;40;20054;-49
2021/05/11 19:28:04;;;;;;;6.43;3.10;;;;;;;22.35;34.05;99500.22;3526801;40;20050;-57
2021/05/11 19:30:31;;;;;;;7.47;3.20;;;;;;;22.28;34.20;99501.78;3517151;40;20039;-53
2021/05/11 19:32:59;;;;;;;5.47;2.88;;;;;;;22.23;33.94;99504.09;3527931;40;20038;-55
2021/05/11 19:35:29;;;;;;;5.88;3.22;;;;;;;22.16;34.19;99503.84;3515853;40;20075;-61
2021/05/11 19:37:57;;;;;;;5.53;2.88;;;;;;;22.10;34.00;99494.63;3516758;40;20418;-57
2021/05/11 19:40:24;;;;;;;6.50;3.25;;;;;;;22.05;34.38;99502.22;3527297;40;20035;-60
2021/05/11 19:42:52;;;;;;;8.55;3.50;;;;;;;22.00;34.17;99500.97;3527674;40;20035;-60
2021/05/11 19:45:20;;;;;;;7.18;2.80;;;;;;;21.93;34.57;99508.75;3526898;40;20074;-61
2021/05/11 19:47:46;;;;;;;8.27;3.20;;;;;;;21.86;34.31;99496.97;3526595;40;20042;-54
2021/05/11 19:50:13;;;;;;;4.85;3.15;;;;;;;21.83;34.12;99489.25;3523812;40;20399;-61
2021/05/11 19:52:42;;;;;;;3.70;2.97;;;;;;;21.81;34.62;99499.25;3528016;40;20039;-64
2021/05/11 19:55:10;;;;;;;5.50;2.90;;;;;;;21.75;34.49;99489.19;3526321;40;20043;-53
2021/05/11 19:57:37;;;;;;;5.15;2.80;;;;;;;21.70;34.63;99486.97;3525566;40;20042;-55